Time;durP1;ratioP1;P1;durP2;ratioP2;P2;SDS_P1;SDS_P2;PMS_P1;PMS_P2;Temp;Humidity;BMP_temperature;BMP_pressure;BME280_temperature;BME280_humidity;BME280_pressure;Samples;Min_cycle;Max_cycle;Signal;HPM_P1;HPM_P2
2021/11/15 00:00:55;;;;;;;209.63;189.55;;;;;;;4.86;100.00;102059.44;5003914;28;20101;-80
2021/11/15 00:03:24;;;;;;;;;;;;;;;4.86;100.00;102064.72;5010402;28;20335;-79
2021/11/15 00:05:52;;;;;;;196.85;176.50;;;;;;;4.82;100.00;102062.34;5010118;28;19933;-81
2021/11/15 00:08:20;;;;;;;221.20;199.68;;;;;;;4.83;100.00;102066.63;5009192;28;20051;-79
2021/11/15 00:10:47;;;;;;;230.73;209.25;;;;;;;4.72;100.00;102066.78;4998460;28;20539;-79
2021/11/15 00:13:20;;;;;;;227.60;205.85;;;;;;;4.76;100.00;102068.16;5020681;28;20049;-80
2021/11/15 00:15:47;;;;;;;231.40;209.90;;;;;;;4.74;100.00;102062.19;5017734;28;20042;-79
2021/11/15 00:18:16;;;;;;;221.18;201.05;;;;;;;4.65;100.00;102064.78;5011653;28;20127;-80
2021/11/15 00:20:44;;;;;;;221.20;200.00;;;;;;;4.72;100.00;102076.44;5010795;28;20045;-80
2021/11/15 00:23:11;;;;;;;222.23;200.98;;;;;;;4.63;100.00;102077.25;5007429;28;20050;-79
2021/11/15 00:25:38;;;;;;;214.90;194.35;;;;;;;4.64;100.00;102081.56;5006237;28;20062;-79
2021/11/15 00:28:11;;;;;;;207.20;185.63;;;;;;;4.78;100.00;102081.16;5012995;28;20056;-81
2021/11/15 00:30:39;;;;;;;198.93;177.98;;;;;;;4.75;100.00;102079.66;5014633;28;20050;-79
2021/11/15 00:33:06;;;;;;;192.80;172.50;;;;;;;4.71;100.00;102080.06;5014913;28;20105;-81
2021/11/15 00:35:33;;;;;;;217.15;195.70;;;;;;;4.74;100.00;102079.78;5011236;28;20481;-82
2021/11/15 00:38:01;;;;;;;244.55;220.88;;;;;;;4.66;100.00;102083.09;5000920;28;20050;-79
2021/11/15 00:40:28;;;;;;;221.88;201.02;;;;;;;4.85;100.00;102081.47;5018414;28;20049;-79
2021/11/15 00:42:55;;;;;;;220.90;199.80;;;;;;;4.85;100.00;102092.84;5007162;28;20054;-79
2021/11/15 00:45:21;;;;;;;223.60;202.38;;;;;;;4.82;100.00;102078.16;5012116;28;20061;-80
2021/11/15 00:47:58;;;;;;;221.48;200.73;;;;;;;4.77;100.00;102082.97;5012368;28;20058;-80
2021/11/15 00:50:24;;;;;;;207.90;187.52;;;;;;;4.70;100.00;102092.38;5009316;28;20050;-80
2021/11/15 00:52:52;;;;;;;222.68;201.52;;;;;;;4.74;100.00;102098.19;5013678;28;20050;-80
2021/11/15 00:55:21;;;;;;;231.07;209.05;;;;;;;4.83;100.00;102089.50;5015251;28;20061;-81
2021/11/15 00:57:49;;;;;;;214.95;193.27;;;;;;;4.80;100.00;102095.88;5020408;28;20061;-80
2021/11/15 01:00:18;;;;;;;183.65;164.40;;;;;;;4.77;100.00;102101.41;5013835;28;20058;-80
2021/11/15 01:02:45;;;;;;;234.20;212.27;;;;;;;4.95;100.00;102104.22;5014558;28;20396;-80
2021/11/15 01:05:12;;;;;;;240.35;217.38;;;;;;;4.82;100.00;102101.84;5009806;28;20054;-80
2021/11/15 01:07:40;;;;;;;217.38;195.90;;;;;;;4.80;100.00;102102.94;5014542;28;20062;-79
2021/11/15 01:10:09;;;;;;;234.82;212.95;;;;;;;4.91;100.00;102097.56;5002495;28;20065;-80
2021/11/15 01:12:38;;;;;;;236.95;211.80;;;;;;;4.88;100.00;102091.75;5013903;28;20090;-80
2021/11/15 01:15:06;;;;;;;233.15;209.10;;;;;;;4.83;100.00;102090.34;5001006;28;20082;-79
2021/11/15 01:17:35;;;;;;;245.75;220.25;;;;;;;4.80;100.00;102087.97;5003423;28;20050;-80
2021/11/15 01:20:04;;;;;;;264.38;237.40;;;;;;;4.91;100.00;102084.41;5007472;28;20097;-78
2021/11/15 01:22:30;;;;;;;244.52;218.00;;;;;;;4.80;100.00;102092.41;5017571;28;20124;-82
2021/11/15 01:24:57;;;;;;;239.98;215.20;;;;;;;4.77;100.00;102090.88;5005328;28;20062;-79
2021/11/15 01:27:24;;;;;;;276.35;243.60;;;;;;;4.83;100.00;102095.59;5014828;28;20053;-79
2021/11/15 01:29:53;;;;;;;266.73;240.40;;;;;;;4.81;100.00;102099.31;5005192;28;20058;-79
2021/11/15 01:32:20;;;;;;;249.85;223.02;;;;;;;4.77;100.00;102093.50;5010013;28;20081;-80
2021/11/15 01:34:46;;;;;;;250.73;225.05;;;;;;;4.86;100.00;102091.03;5010503;28;20054;-80
2021/11/15 01:37:13;;;;;;;234.40;209.57;;;;;;;4.76;100.00;102089.22;5007228;28;20475;-79
2021/11/15 01:39:41;;;;;;;245.98;219.48;;;;;;;4.93;100.00;102090.38;5006797;28;20479;-78
2021/11/15 01:42:10;;;;;;;251.75;224.80;;;;;;;4.92;100.00;102090.50;5004094;28;20128;-80
2021/11/15 01:44:37;;;;;;;265.15;236.75;;;;;;;5.02;100.00;102099.22;5010823;28;20058;-81
2021/11/15 01:47:06;;;;;;;247.02;209.45;;;;;;;4.91;100.00;102102.00;5006656;28;20474;-78
2021/11/15 01:49:36;;;;;;;243.35;212.98;;;;;;;4.89;100.00;102111.84;5004893;28;20057;-79
2021/11/15 01:52:03;;;;;;;266.52;234.45;;;;;;;4.92;100.00;102109.75;5007673;28;20120;-79
2021/11/15 01:54:30;;;;;;;271.90;243.10;;;;;;;4.82;100.00;102103.63;5009804;28;20050;-79
2021/11/15 01:56:58;;;;;;;254.60;223.63;;;;;;;4.80;100.00;102105.56;5004873;28;20088;-80
2021/11/15 01:59:25;;;;;;;261.08;232.02;;;;;;;4.83;100.00;102115.81;5012044;28;20089;-79
2021/11/15 02:01:52;;;;;;;256.63;228.63;;;;;;;4.83;100.00;102114.03;5006378;28;20050;-80
2021/11/15 02:04:20;;;;;;;246.90;208.93;;;;;;;4.89;100.00;102110.03;5019042;28;20104;-80
2021/11/15 02:06:47;;;;;;;253.95;220.82;;;;;;;4.97;100.00;102106.72;5011235;28;20061;-79
2021/11/15 02:09:14;;;;;;;432.80;342.23;;;;;;;5.04;100.00;102118.38;5014126;28;20085;-79
2021/11/15 02:11:41;;;;;;;288.90;235.02;;;;;;;4.90;100.00;102113.47;5008667;28;20049;-79
2021/11/15 02:14:09;;;;;;;224.40;199.82;;;;;;;4.86;100.00;102115.56;5016473;28;20120;-80
2021/11/15 02:16:35;;;;;;;232.55;193.15;;;;;;;4.84;100.00;102104.31;5009060;28;20050;-80
2021/11/15 02:19:02;;;;;;;233.95;190.15;;;;;;;4.98;100.00;102106.59;5008044;28;20130;-79
2021/11/15 02:21:31;;;;;;;240.48;213.52;;;;;;;5.06;100.00;102111.19;5004797;28;20050;-79
2021/11/15 02:23:58;;;;;;;245.73;218.55;;;;;;;5.01;100.00;102110.75;5007078;28;20061;-79
2021/11/15 02:26:25;;;;;;;262.30;235.52;;;;;;;4.96;100.00;102098.00;5006282;28;20050;-80
2021/11/15 02:28:54;;;;;;;239.18;212.75;;;;;;;4.86;100.00;102097.13;5007754;28;20054;-79
2021/11/15 02:31:26;;;;;;;251.57;223.70;;;;;;;4.86;100.00;102091.03;5003235;28;20076;-81
2021/11/15 02:33:55;;;;;;;279.17;250.15;;;;;;;4.93;100.00;102100.91;5019498;28;20046;-79
2021/11/15 02:36:27;;;;;;;267.02;238.95;;;;;;;4.97;100.00;102098.84;5012667;28;20058;-81
2021/11/15 02:38:56;;;;;;;276.45;247.65;;;;;;;4.88;100.00;102110.19;5012418;28;20062;-78
2021/11/15 02:41:29;;;;;;;290.98;252.38;;;;;;;5.02;100.00;102110.63;5007780;28;20109;-79
2021/11/15 02:43:58;;;;;;;;;;;;;;;4.99;100.00;102112.69;5003270;28;20109;-79
2021/11/15 02:46:26;;;;;;;254.60;219.02;;;;;;;5.04;100.00;102111.31;5013968;28;19925;-78
2021/11/15 02:48:52;;;;;;;260.30;232.43;;;;;;;4.95;100.00;102117.38;5012791;28;20061;-78
2021/11/15 02:51:20;;;;;;;281.48;250.95;;;;;;;4.99;100.00;102110.03;5011703;28;20480;-78
2021/11/15 02:53:48;;;;;;;286.15;255.50;;;;;;;5.10;100.00;102112.56;5012769;28;20483;-78
2021/11/15 02:56:17;;;;;;;271.30;242.50;;;;;;;5.11;100.00;102108.97;5004173;28;20050;-79
2021/11/15 02:58:44;;;;;;;276.40;247.07;;;;;;;5.03;100.00;102109.66;5011068;28;20202;-78
2021/11/15 03:01:13;;;;;;;279.98;250.82;;;;;;;4.98;100.00;102113.66;5119587;23;20055;-80
2021/11/15 03:03:42;;;;;;;298.70;263.60;;;;;;;4.83;100.00;102106.13;5031740;28;20057;-80
2021/11/15 03:06:10;;;;;;;298.35;266.02;;;;;;;4.96;100.00;102110.31;5035152;28;20123;-79
2021/11/15 03:08:38;;;;;;;293.80;261.08;;;;;;;4.93;100.00;102111.44;5030793;28;20128;-80
2021/11/15 03:11:06;;;;;;;305.10;265.25;;;;;;;4.94;100.00;102107.84;5031519;28;20050;-79
2021/11/15 03:13:37;;;;;;;275.92;242.63;;;;;;;4.86;100.00;102099.75;5039890;28;20057;-78
2021/11/15 03:16:04;;;;;;;299.38;251.55;;;;;;;4.93;100.00;102105.31;5033614;28;20049;-79
2021/11/15 03:18:35;;;;;;;312.05;261.77;;;;;;;5.01;100.00;102110.75;5027308;28;20053;-79
2021/11/15 03:21:05;;;;;;;311.55;265.50;;;;;;;5.02;100.00;102117.66;5034020;28;20448;-79
2021/11/15 03:23:36;;;;;;;308.50;263.50;;;;;;;4.98;100.00;102117.13;5036405;28;20049;-79
2021/11/15 03:26:03;;;;;;;284.15;253.80;;;;;;;5.03;100.00;102125.44;5025801;28;20042;-78
2021/11/15 03:28:32;;;;;;;277.20;237.85;;;;;;;5.09;100.00;102123.25;5023842;28;20458;-79
2021/11/15 03:31:02;;;;;;;265.88;212.77;;;;;;;5.16;100.00;102114.66;5025895;28;20412;-79
2021/11/15 03:33:31;;;;;;;268.77;235.68;;;;;;;5.15;100.00;102118.28;5027257;28;20053;-78
2021/11/15 03:35:58;;;;;;;265.98;227.75;;;;;;;5.09;100.00;102124.09;5035141;28;20088;-79
2021/11/15 03:38:25;;;;;;;293.58;262.75;;;;;;;4.87;100.00;102126.91;5031164;28;20061;-79
2021/11/15 03:40:52;;;;;;;261.23;232.05;;;;;;;4.97;100.00;102133.88;5034021;28;20049;-78
2021/11/15 03:43:19;;;;;;;288.05;258.80;;;;;;;5.07;100.00;102130.44;5029158;28;20087;-78
2021/11/15 03:45:51;;;;;;;305.48;273.20;;;;;;;5.01;100.00;102129.19;5027739;28;20882;-79
2021/11/15 03:48:21;;;;;;;269.05;240.10;;;;;;;4.89;100.00;102117.91;5038177;28;20058;-79
2021/11/15 03:50:48;;;;;;;275.85;247.23;;;;;;;4.95;100.00;102119.19;5026316;28;20070;-79
2021/11/15 03:53:17;;;;;;;286.42;255.35;;;;;;;5.05;100.00;102120.91;5022316;28;20053;-79
2021/11/15 03:55:44;;;;;;;291.38;260.52;;;;;;;4.82;100.00;102115.00;5036962;28;20527;-81
2021/11/15 03:58:11;;;;;;;271.77;240.75;;;;;;;4.75;100.00;102115.66;5029471;28;20067;-80
2021/11/15 04:00:45;;;;;;;264.10;226.52;;;;;;;4.93;100.00;102111.44;5031068;28;20087;-78
2021/11/15 04:03:18;;;;;;;271.80;230.65;;;;;;;4.84;100.00;102117.47;5035510;28;20053;-79
2021/11/15 04:05:54;;;;;;;275.98;234.60;;;;;;;4.92;100.00;102116.81;5026431;28;20054;-79
2021/11/15 04:08:21;;;;;;;277.58;247.30;;;;;;;4.96;100.00;102112.94;5032146;28;20497;-79
2021/11/15 04:10:48;;;;;;;293.92;262.10;;;;;;;4.95;100.00;102116.56;5038008;28;20075;-79
2021/11/15 04:13:17;;;;;;;291.80;252.98;;;;;;;4.94;100.00;102117.53;5039412;28;20049;-80
2021/11/15 04:15:48;;;;;;;301.48;249.82;;;;;;;4.99;100.00;102117.94;5033572;28;20441;-80
2021/11/15 04:18:17;;;;;;;329.63;294.52;;;;;;;5.07;100.00;102119.91;5024375;28;20045;-80
2021/11/15 04:20:45;;;;;;;344.63;307.83;;;;;;;4.99;100.00;102118.81;5028562;28;20049;-79
2021/11/15 04:23:12;;;;;;;324.23;285.98;;;;;;;4.93;100.00;102110.59;5028441;28;20053;-79
2021/11/15 04:25:40;;;;;;;323.10;288.00;;;;;;;4.95;100.00;102120.03;5026765;28;20472;-80
2021/11/15 04:28:06;;;;;;;313.98;278.83;;;;;;;4.98;100.00;102124.19;5027432;28;20049;-79
2021/11/15 04:30:35;;;;;;;347.55;301.65;;;;;;;5.07;100.00;102123.38;5025954;28;20053;-79
2021/11/15 04:33:05;;;;;;;335.30;299.45;;;;;;;5.04;100.00;102131.53;5037307;28;20057;-80
2021/11/15 04:35:32;;;;;;;336.95;300.73;;;;;;;5.00;100.00;102131.00;5022344;28;20065;-80
2021/11/15 04:38:02;;;;;;;333.25;299.00;;;;;;;5.13;100.00;102132.53;5032919;28;20070;-79
2021/11/15 04:40:29;;;;;;;292.67;262.25;;;;;;;4.88;100.00;102137.31;5038354;28;20053;-80
2021/11/15 04:42:57;;;;;;;306.58;274.20;;;;;;;4.96;100.00;102136.66;5026809;28;20107;-80
2021/11/15 04:45:26;;;;;;;296.35;265.08;;;;;;;4.93;100.00;102145.66;5036647;28;20049;-80
2021/11/15 04:47:54;;;;;;;290.48;260.00;;;;;;;4.90;100.00;102135.41;5025227;28;20050;-79
2021/11/15 04:50:22;;;;;;;299.13;268.55;;;;;;;4.81;100.00;102133.53;5028888;28;20054;-80
2021/11/15 04:52:50;;;;;;;270.60;241.68;;;;;;;4.82;100.00;102140.50;5027266;28;20057;-80
2021/11/15 04:55:20;;;;;;;259.30;231.43;;;;;;;4.88;100.00;102147.03;5035213;28;20049;-79
2021/11/15 04:57:47;;;;;;;262.75;224.23;;;;;;;4.95;100.00;102146.34;5028890;28;20058;-79
2021/11/15 05:00:18;;;;;;;247.10;220.38;;;;;;;4.97;100.00;102159.41;5025973;28;20103;-79
2021/11/15 05:02:45;;;;;;;259.70;231.23;;;;;;;5.00;100.00;102153.88;5019922;28;20145;-80
2021/11/15 05:05:12;;;;;;;286.33;256.13;;;;;;;5.08;100.00;102158.44;5032161;28;20049;-80
2021/11/15 05:07:40;;;;;;;293.00;261.10;;;;;;;5.04;100.00;102169.25;4991107;28;20057;-79
2021/11/15 05:10:09;;;;;;;305.88;274.75;;;;;;;5.12;100.00;102167.75;5030640;28;20451;-80
2021/11/15 05:12:37;;;;;;;308.10;276.65;;;;;;;5.09;100.00;102171.50;5029137;28;20072;-80
2021/11/15 05:15:05;;;;;;;259.35;232.05;;;;;;;5.03;100.00;102177.28;5044360;28;20052;-81
2021/11/15 05:17:32;;;;;;;279.73;250.35;;;;;;;5.10;100.00;102178.41;5029592;28;20080;-79
2021/11/15 05:20:00;;;;;;;264.70;238.30;;;;;;;5.13;100.00;102180.78;5020838;28;20081;-80
2021/11/15 05:22:28;;;;;;;264.95;237.27;;;;;;;5.04;100.00;102185.03;5038379;28;20136;-80
2021/11/15 05:24:55;;;;;;;282.35;254.07;;;;;;;5.24;100.00;102188.59;5034508;28;20415;-80
2021/11/15 05:27:22;;;;;;;311.23;281.05;;;;;;;7.23;100.00;102195.81;5021355;28;20124;-78
2021/11/15 05:29:50;;;;;;;288.30;260.70;;;;;;;5.39;100.00;102206.66;5021321;28;20049;-80
2021/11/15 05:32:17;;;;;;;291.40;262.73;;;;;;;5.25;100.00;102206.03;5017626;28;20058;-80
2021/11/15 05:34:44;;;;;;;282.30;255.15;;;;;;;5.26;100.00;102204.22;5019371;28;20456;-79
2021/11/15 05:37:11;;;;;;;278.35;249.60;;;;;;;5.20;100.00;102210.03;5018922;28;20139;-80
2021/11/15 05:39:38;;;;;;;264.45;238.10;;;;;;;5.21;100.00;102211.72;5021686;28;20334;-78
2021/11/15 05:42:05;;;;;;;252.68;227.52;;;;;;;5.10;100.00;102211.81;5020583;28;20537;-79
2021/11/15 05:44:32;;;;;;;270.23;244.07;;;;;;;5.02;100.00;102226.50;5018977;28;20049;-80
2021/11/15 05:47:00;;;;;;;275.75;247.38;;;;;;;4.98;100.00;102213.72;5019030;28;20501;-79
2021/11/15 05:49:27;;;;;;;287.27;259.98;;;;;;;4.94;100.00;102209.69;5021208;28;20468;-80
2021/11/15 05:51:53;;;;;;;277.95;250.93;;;;;;;5.01;100.00;102216.09;5017771;28;20430;-78
2021/11/15 05:54:20;;;;;;;273.25;246.25;;;;;;;4.99;100.00;102221.50;5020242;28;20054;-81
2021/11/15 05:56:48;;;;;;;280.98;253.68;;;;;;;4.96;100.00;102229.66;5022688;28;20050;-79
2021/11/15 05:59:15;;;;;;;249.93;225.45;;;;;;;5.03;100.00;102232.59;5020003;28;20057;-80
2021/11/15 06:01:43;;;;;;;238.90;215.45;;;;;;;5.02;100.00;102241.44;5016670;28;20058;-79
2021/11/15 06:04:11;;;;;;;228.27;204.23;;;;;;;5.09;100.00;102241.78;5025306;28;20053;-79
2021/11/15 06:06:38;;;;;;;233.70;211.10;;;;;;;5.19;100.00;102246.09;5017529;28;20042;-79
2021/11/15 06:09:05;;;;;;;254.00;229.00;;;;;;;5.20;100.00;102252.19;5028546;28;20494;-79
2021/11/15 06:11:32;;;;;;;243.55;219.80;;;;;;;5.12;100.00;102252.88;5017113;28;20474;-79
2021/11/15 06:13:59;;;;;;;245.57;222.23;;;;;;;5.22;100.00;102263.44;5021258;28;20441;-79
2021/11/15 06:16:26;;;;;;;223.85;201.60;;;;;;;5.16;100.00;102251.63;5022672;28;20547;-79
2021/11/15 06:18:52;;;;;;;209.57;187.02;;;;;;;5.13;100.00;102257.16;5020340;28;20061;-79
2021/11/15 06:21:21;;;;;;;220.32;196.77;;;;;;;5.07;100.00;102260.31;5018166;28;20053;-79
2021/11/15 06:23:47;;;;;;;255.13;229.68;;;;;;;5.09;100.00;102263.66;5024044;28;20187;-80
2021/11/15 06:26:14;;;;;;;249.45;223.55;;;;;;;5.24;100.00;102259.72;5018038;28;20497;-79
2021/11/15 06:28:46;;;;;;;263.15;236.80;;;;;;;5.15;100.00;102260.50;5016554;28;20061;-79
2021/11/15 06:31:12;;;;;;;286.97;258.17;;;;;;;5.18;100.00;102259.41;5020549;28;20057;-78
2021/11/15 06:33:39;;;;;;;287.98;258.45;;;;;;;5.24;100.00;102262.34;5013902;28;20838;-78
2021/11/15 06:36:06;;;;;;;308.58;278.48;;;;;;;5.25;100.00;102274.53;5017240;28;20053;-79
2021/11/15 06:38:34;;;;;;;282.27;253.05;;;;;;;5.38;100.00;102271.66;5019177;28;20589;-79
2021/11/15 06:41:01;;;;;;;336.33;301.15;;;;;;;5.08;100.00;102267.25;5030875;28;20065;-79
2021/11/15 06:43:28;;;;;;;314.52;281.05;;;;;;;5.13;100.00;102274.78;5021060;28;20049;-80
2021/11/15 06:45:55;;;;;;;338.35;304.23;;;;;;;5.14;100.00;102273.78;5034134;28;20126;-79
2021/11/15 06:48:21;;;;;;;305.40;274.75;;;;;;;5.12;100.00;102281.00;5032082;28;20068;-79
2021/11/15 06:50:49;;;;;;;305.85;273.50;;;;;;;5.20;100.00;102284.63;5020919;28;20054;-79
2021/11/15 06:53:16;;;;;;;325.40;290.52;;;;;;;5.15;100.00;102289.47;5023907;28;20088;-78
2021/11/15 06:55:44;;;;;;;325.65;290.13;;;;;;;5.15;100.00;102302.66;5030503;28;20045;-78
2021/11/15 06:58:11;;;;;;;330.58;295.77;;;;;;;5.22;100.00;102297.69;5022616;28;20054;-79
2021/11/15 07:00:38;;;;;;;325.25;291.52;;;;;;;5.22;100.00;102289.78;5023803;28;20537;-79
2021/11/15 07:03:04;;;;;;;306.60;275.08;;;;;;;5.20;100.00;102297.81;5027478;28;20061;-79
2021/11/15 07:05:31;;;;;;;298.23;237.75;;;;;;;5.35;100.00;102303.56;5025837;28;20539;-79
2021/11/15 07:07:58;;;;;;;291.55;235.65;;;;;;;5.46;100.00;102308.72;5029635;28;20472;-79
2021/11/15 07:10:25;;;;;;;317.95;255.13;;;;;;;5.32;100.00;102308.25;5032383;28;20369;-79
2021/11/15 07:12:53;;;;;;;322.13;255.77;;;;;;;5.41;100.00;102299.56;5030073;28;20053;-79
2021/11/15 07:15:20;;;;;;;300.23;267.48;;;;;;;5.35;100.00;102294.81;5029428;28;20072;-79
2021/11/15 07:17:48;;;;;;;326.45;273.25;;;;;;;5.26;100.00;102299.94;5020811;28;20045;-79
2021/11/15 07:20:15;;;;;;;310.17;259.45;;;;;;;5.32;100.00;102295.09;5031027;28;20053;-80
2021/11/15 07:22:44;;;;;;;295.17;239.20;;;;;;;5.41;100.00;102304.81;5021437;28;20524;-80
2021/11/15 07:25:11;;;;;;;321.60;247.88;;;;;;;5.43;100.00;102306.38;5031032;28;20126;-79
2021/11/15 07:27:38;;;;;;;310.88;235.48;;;;;;;5.22;100.00;102305.59;5020413;28;20064;-79
2021/11/15 07:30:08;;;;;;;323.25;284.88;;;;;;;5.43;100.00;102311.63;5024163;28;20077;-79
2021/11/15 07:32:35;;;;;;;303.40;239.05;;;;;;;5.39;100.00;102310.25;5017997;28;20050;-78
2021/11/15 07:35:02;;;;;;;282.60;236.73;;;;;;;5.50;100.00;102306.66;5022201;28;20050;-79
2021/11/15 07:37:29;;;;;;;254.90;227.52;;;;;;;5.60;100.00;102306.69;5022309;28;20054;-78
2021/11/15 07:39:56;;;;;;;248.93;221.70;;;;;;;5.60;100.00;102309.31;5029575;28;20049;-79
2021/11/15 07:42:22;;;;;;;252.32;221.75;;;;;;;5.51;100.00;102310.97;5029915;28;20543;-80
2021/11/15 07:44:49;;;;;;;248.85;219.18;;;;;;;5.66;100.00;102317.53;5029341;28;20122;-82
2021/11/15 07:47:18;;;;;;;270.10;228.68;;;;;;;5.62;100.00;102318.75;5024816;28;20132;-79
2021/11/15 07:49:45;;;;;;;253.00;226.43;;;;;;;5.66;100.00;102320.19;5021285;28;20481;-79
2021/11/15 07:52:13;;;;;;;250.48;223.48;;;;;;;5.59;100.00;102320.84;5022297;28;20060;-78
2021/11/15 07:54:40;;;;;;;237.90;213.05;;;;;;;5.67;100.00;102329.75;5030684;28;20141;-79
2021/11/15 07:57:08;;;;;;;255.98;218.43;;;;;;;5.59;100.00;102320.84;5023190;28;20050;-79
2021/11/15 07:59:35;;;;;;;260.95;223.50;;;;;;;5.71;100.00;102323.22;5026069;28;20097;-80
2021/11/15 08:02:01;;;;;;;272.50;245.80;;;;;;;5.64;100.00;102330.03;5027950;28;20067;-79
2021/11/15 08:04:30;;;;;;;265.73;235.85;;;;;;;5.64;100.00;102326.56;5027876;28;20052;-79
2021/11/15 08:06:56;;;;;;;260.95;234.80;;;;;;;5.61;100.00;102325.00;5028416;28;20065;-81
2021/11/15 08:09:23;;;;;;;252.85;227.32;;;;;;;5.72;100.00;102317.00;5031578;28;20053;-79
2021/11/15 08:11:52;;;;;;;244.35;218.60;;;;;;;5.78;100.00;102334.09;5025323;28;20144;-78
2021/11/15 08:14:19;;;;;;;256.15;230.25;;;;;;;5.58;100.00;102341.09;5026734;28;20111;-79
2021/11/15 08:16:47;;;;;;;280.80;254.63;;;;;;;5.62;100.00;102346.94;5027517;28;20053;-79
2021/11/15 08:19:14;;;;;;;267.58;242.10;;;;;;;5.62;100.00;102349.56;5020488;28;20086;-79
2021/11/15 08:21:43;;;;;;;296.20;268.23;;;;;;;5.69;100.00;102351.56;5023462;28;20517;-79
2021/11/15 08:24:41;;;;;;;302.83;272.20;;;;;;;5.74;100.00;102359.03;5021348;28;20054;-79
2021/11/15 08:27:08;;;;;;;278.67;250.35;;;;;;;5.74;100.00;102359.03;5017063;28;20113;-78
2021/11/15 08:29:35;;;;;;;301.60;271.83;;;;;;;6.00;100.00;102359.44;5021823;28;20115;-79
2021/11/15 08:32:06;;;;;;;258.50;233.10;;;;;;;6.10;100.00;102359.44;5022895;28;20068;-80
2021/11/15 08:34:33;;;;;;;243.43;219.70;;;;;;;5.89;100.00;102364.78;5026063;28;20049;-78
2021/11/15 08:37:03;;;;;;;251.77;226.93;;;;;;;5.91;100.00;102368.13;5021396;28;20441;-78
2021/11/15 08:39:30;;;;;;;243.52;219.43;;;;;;;5.93;100.00;102363.56;5022847;28;20404;-79
2021/11/15 08:41:59;;;;;;;238.30;215.45;;;;;;;5.92;100.00;102364.50;5026914;28;20136;-78
2021/11/15 08:44:28;;;;;;;246.32;222.10;;;;;;;5.92;100.00;102359.22;5027492;28;20614;-79
2021/11/15 08:46:58;;;;;;;240.00;213.23;;;;;;;6.10;100.00;102362.91;5026416;28;20084;-79
2021/11/15 08:49:28;;;;;;;237.82;212.98;;;;;;;6.37;100.00;102369.34;5020442;28;20191;-79
2021/11/15 08:51:58;;;;;;;262.65;228.02;;;;;;;6.24;100.00;102371.41;5026594;28;20536;-79
2021/11/15 08:54:27;;;;;;;295.65;240.07;;;;;;;6.08;100.00;102369.28;5022057;28;20049;-78
2021/11/15 08:56:56;;;;;;;271.70;226.18;;;;;;;6.26;100.00;102365.00;5024086;28;20064;-79
2021/11/15 08:59:23;;;;;;;253.07;226.18;;;;;;;6.16;100.00;102366.81;5024062;28;20111;-78
2021/11/15 09:01:50;;;;;;;233.45;208.93;;;;;;;5.97;100.00;102364.97;5019684;28;20057;-79
2021/11/15 09:04:17;;;;;;;239.73;213.40;;;;;;;5.96;100.00;102369.44;5027412;28;20507;-79
2021/11/15 09:06:45;;;;;;;257.25;218.27;;;;;;;6.24;100.00;102358.22;5027301;28;20049;-79
2021/11/15 09:09:15;;;;;;;270.67;235.55;;;;;;;6.17;100.00;102360.56;5027945;28;20115;-79
2021/11/15 09:11:44;;;;;;;294.80;245.65;;;;;;;6.15;100.00;102365.97;5025510;28;20080;-79
2021/11/15 09:14:12;;;;;;;271.75;243.15;;;;;;;6.27;100.00;102365.88;5024530;28;20489;-79
2021/11/15 09:16:38;;;;;;;257.75;229.52;;;;;;;6.20;100.00;102365.56;5017298;28;20050;-78
2021/11/15 09:19:05;;;;;;;236.93;211.35;;;;;;;6.16;100.00;102364.19;5026065;28;20492;-79
2021/11/15 09:21:32;;;;;;;243.55;218.15;;;;;;;6.07;100.00;102370.28;5025278;28;20054;-79
2021/11/15 09:23:59;;;;;;;273.88;247.80;;;;;;;6.47;100.00;102358.78;5019508;28;20064;-79
2021/11/15 09:26:28;;;;;;;274.05;245.77;;;;;;;6.51;100.00;102368.09;5026166;28;20449;-78
2021/11/15 09:28:57;;;;;;;276.58;250.90;;;;;;;6.71;100.00;102372.38;5026591;28;20064;-78
2021/11/15 09:31:24;;;;;;;266.60;240.48;;;;;;;6.62;100.00;102365.31;5027339;28;20115;-79
2021/11/15 09:33:52;;;;;;;260.40;235.25;;;;;;;6.47;100.00;102358.78;5025919;28;20643;-79
2021/11/15 09:36:22;;;;;;;251.43;218.70;;;;;;;6.54;100.00;102352.00;5025995;28;20107;-79
2021/11/15 09:38:50;;;;;;;238.50;212.98;;;;;;;6.47;100.00;102350.84;5026070;28;21453;-78
2021/11/15 09:41:16;;;;;;;227.23;204.15;;;;;;;6.37;100.00;102351.69;5026847;28;20057;-79
2021/11/15 09:43:43;;;;;;;229.20;205.68;;;;;;;6.48;100.00;102350.72;5018401;28;20478;-78
2021/11/15 09:46:14;;;;;;;246.77;220.20;;;;;;;6.28;100.00;102349.06;5020748;28;20041;-79
2021/11/15 09:48:43;;;;;;;231.57;208.95;;;;;;;6.19;100.00;102348.06;5027943;28;20092;-79
2021/11/15 09:51:10;;;;;;;245.57;221.32;;;;;;;6.13;100.00;102346.81;5019947;28;20061;-77
2021/11/15 09:53:38;;;;;;;262.10;235.70;;;;;;;6.27;100.00;102350.88;5026668;28;20053;-78
2021/11/15 09:56:07;;;;;;;271.45;243.63;;;;;;;6.26;100.00;102349.19;5028193;28;20056;-78
2021/11/15 09:58:34;;;;;;;296.98;267.15;;;;;;;6.35;100.00;102356.25;5028588;28;20536;-79
2021/11/15 10:01:02;;;;;;;299.83;271.45;;;;;;;6.25;100.00;102344.88;5027292;28;20053;-79
2021/11/15 10:03:30;;;;;;;333.27;299.80;;;;;;;6.21;100.00;102343.50;5019403;28;20076;-78
2021/11/15 10:05:57;;;;;;;323.92;293.25;;;;;;;6.57;100.00;102336.69;5020560;28;20057;-79
2021/11/15 10:08:23;;;;;;;266.63;241.35;;;;;;;6.61;100.00;102343.34;5025254;28;20053;-78
2021/11/15 10:10:57;;;;;;;278.65;251.75;;;;;;;6.55;100.00;102358.94;5027414;28;20115;-78
2021/11/15 10:13:28;;;;;;;286.58;258.58;;;;;;;6.62;100.00;102355.56;5029495;28;20091;-79
2021/11/15 10:16:02;;;;;;;332.05;299.33;;;;;;;6.42;100.00;102360.03;5024443;28;20505;-78
2021/11/15 10:18:46;;;;;;;314.08;284.33;;;;;;;6.51;100.00;102355.75;5020003;28;20486;-79
2021/11/15 10:21:17;;;;;;;337.05;304.55;;;;;;;6.46;100.00;102355.31;5021713;28;20064;-79
2021/11/15 10:23:48;;;;;;;303.33;272.37;;;;;;;6.21;100.00;102358.50;5026132;28;20057;-78
2021/11/15 10:26:21;;;;;;;328.45;296.08;;;;;;;6.37;100.00;102361.41;5023289;28;20053;-79
2021/11/15 10:28:52;;;;;;;297.45;268.42;;;;;;;6.40;100.00;102366.41;5023789;28;20049;-79
2021/11/15 10:31:33;;;;;;;305.73;275.05;;;;;;;6.39;100.00;102367.41;5027588;28;20399;-80
2021/11/15 10:34:02;;;;;;;291.42;262.02;;;;;;;6.68;100.00;102359.47;5024369;28;20497;-79
2021/11/15 10:37:09;;;;;;;304.00;271.55;;;;;;;6.46;100.00;102360.59;5025734;28;20152;-78
2021/11/15 10:39:41;;;;;;;303.35;271.83;;;;;;;6.54;100.00;102371.31;4999548;28;20111;-78
2021/11/15 10:42:13;;;;;;;299.05;258.63;;;;;;;6.32;100.00;102363.63;5005886;28;20046;-78
2021/11/15 10:44:51;;;;;;;305.08;271.58;;;;;;;6.37;100.00;102369.34;5013449;28;20054;-79
2021/11/15 10:47:24;;;;;;;277.92;244.82;;;;;;;6.53;100.00;102366.97;5025784;28;20421;-79
2021/11/15 10:49:59;;;;;;;270.67;241.32;;;;;;;6.43;100.00;102360.88;5023841;28;20056;-79
2021/11/15 10:52:26;;;;;;;304.73;273.00;;;;;;;6.62;100.00;102358.22;5028151;28;20053;-79
2021/11/15 10:55:01;;;;;;;309.38;277.05;;;;;;;6.73;100.00;102357.25;5028439;28;20228;-78
2021/11/15 10:57:48;;;;;;;284.23;227.15;;;;;;;6.54;100.00;102355.47;5026176;28;20378;-78
2021/11/15 11:00:29;;;;;;;301.67;259.65;;;;;;;6.39;100.00;102359.50;5018492;28;20080;-79